sensor_id;sensor_type;location;lat;lon;timestamp;pressure;altitude;pressure_sealevel;temperature;humidity
42633;BME280;28261;53.304;-6.284;2022-11-20T00:01:54;100014.59;;;7.16;100.00
42633;BME280;28261;53.304;-6.284;2022-11-20T00:07:24;100015.84;;;7.10;100.00
42633;BME280;28261;53.304;-6.284;2022-11-20T00:21:14;100024.59;;;7.10;100.00
42633;BME280;28261;53.304;-6.284;2022-11-20T00:23:19;100024.59;;;7.10;100.00
42633;BME280;28261;53.304;-6.284;2022-11-20T00:25:26;100030.81;;;7.09;100.00
42633;BME280;28261;53.304;-6.284;2022-11-20T00:27:30;100032.50;;;7.10;100.00
42633;BME280;28261;53.304;-6.284;2022-11-20T00:29:34;100036.94;;;7.10;100.00
42633;BME280;28261;53.304;-6.284;2022-11-20T00:38:12;100045.13;;;7.05;100.00
42633;BME280;28261;53.304;-6.284;2022-11-20T00:40:17;100043.44;;;7.04;100.00
42633;BME280;28261;53.304;-6.284;2022-11-20T00:47:08;100044.78;;;6.97;100.00
42633;BME280;28261;53.304;-6.284;2022-11-20T00:49:19;100048.44;;;6.94;100.00
42633;BME280;28261;53.304;-6.284;2022-11-20T00:51:53;100046.75;;;6.93;100.00
42633;BME280;28261;53.304;-6.284;2022-11-20T01:01:50;100065.75;;;6.84;100.00
42633;BME280;28261;53.304;-6.284;2022-11-20T01:11:41;100066.81;;;6.67;100.00
42633;BME280;28261;53.304;-6.284;2022-11-20T01:14:14;100068.69;;;6.65;100.00
42633;BME280;28261;53.304;-6.284;2022-11-20T01:16:26;100057.50;;;6.62;100.00
42633;BME280;28261;53.304;-6.284;2022-11-20T01:18:31;100057.56;;;6.60;100.00
42633;BME280;28261;53.304;-6.284;2022-11-20T01:20:36;100059.47;;;6.58;100.00
42633;BME280;28261;53.304;-6.284;2022-11-20T01:22:47;100056.84;;;6.58;100.00
42633;BME280;28261;53.304;-6.284;2022-11-20T01:40:57;100059.66;;;6.55;100.00
42633;BME280;28261;53.304;-6.284;2022-11-20T01:51:04;100071.13;;;6.54;100.00
42633;BME280;28261;53.304;-6.284;2022-11-20T01:54:05;100073.66;;;6.55;100.00
42633;BME280;28261;53.304;-6.284;2022-11-20T01:56:12;100069.25;;;6.56;100.00
42633;BME280;28261;53.304;-6.284;2022-11-20T01:58:18;100078.00;;;6.56;100.00
42633;BME280;28261;53.304;-6.284;2022-11-20T02:00:24;100083.38;;;6.55;100.00
42633;BME280;28261;53.304;-6.284;2022-11-20T02:02:28;100080.81;;;6.53;100.00
42633;BME280;28261;53.304;-6.284;2022-11-20T02:04:31;100078.25;;;6.52;100.00
42633;BME280;28261;53.304;-6.284;2022-11-20T02:06:37;100073.00;;;6.52;100.00
42633;BME280;28261;53.304;-6.284;2022-11-20T02:08:42;100078.25;;;6.52;100.00
42633;BME280;28261;53.304;-6.284;2022-11-20T02:10:46;100076.59;;;6.51;100.00
42633;BME280;28261;53.304;-6.284;2022-11-20T02:12:51;100083.63;;;6.50;100.00
42633;BME280;28261;53.304;-6.284;2022-11-20T02:15:12;100076.59;;;6.51;100.00
42633;BME280;28261;53.304;-6.284;2022-11-20T02:17:16;100085.44;;;6.50;100.00
42633;BME280;28261;53.304;-6.284;2022-11-20T02:22:54;100080.34;;;6.47;100.00
42633;BME280;28261;53.304;-6.284;2022-11-20T02:25:02;100083.06;;;6.45;100.00
42633;BME280;28261;53.304;-6.284;2022-11-20T02:31:54;100096.59;;;6.53;100.00
42633;BME280;28261;53.304;-6.284;2022-11-20T02:35:07;100091.91;;;6.58;100.00
42633;BME280;28261;53.304;-6.284;2022-11-20T02:38:10;100090.13;;;6.59;100.00
42633;BME280;28261;53.304;-6.284;2022-11-20T02:49:52;100065.09;;;6.52;100.00
42633;BME280;28261;53.304;-6.284;2022-11-20T02:56:51;100062.66;;;6.49;100.00
42633;BME280;28261;53.304;-6.284;2022-11-20T02:58:55;100066.22;;;6.48;100.00
42633;BME280;28261;53.304;-6.284;2022-11-20T03:01:26;100067.25;;;6.45;100.00
42633;BME280;28261;53.304;-6.284;2022-11-20T03:07:11;100070.38;;;6.37;100.00
42633;BME280;28261;53.304;-6.284;2022-11-20T03:09:31;100067.94;;;6.34;100.00
42633;BME280;28261;53.304;-6.284;2022-11-20T03:11:35;100069.78;;;6.32;100.00
42633;BME280;28261;53.304;-6.284;2022-11-20T03:13:43;100072.72;;;6.28;100.00
42633;BME280;28261;53.304;-6.284;2022-11-20T03:15:47;100079.75;;;6.27;100.00
42633;BME280;28261;53.304;-6.284;2022-11-20T03:18:10;100074.66;;;6.24;100.00
42633;BME280;28261;53.304;-6.284;2022-11-20T03:20:15;100080.13;;;6.21;100.00
42633;BME280;28261;53.304;-6.284;2022-11-20T03:33:50;100040.41;;;6.09;98.96
42633;BME280;28261;53.304;-6.284;2022-11-20T03:36:02;100047.38;;;6.10;98.42
42633;BME280;28261;53.304;-6.284;2022-11-20T03:38:40;100041.28;;;6.10;98.38
42633;BME280;28261;53.304;-6.284;2022-11-20T03:41:55;100041.47;;;6.07;98.27
42633;BME280;28261;53.304;-6.284;2022-11-20T03:44:28;100040.59;;;6.06;98.16
42633;BME280;28261;53.304;-6.284;2022-11-20T03:46:35;100038.06;;;6.05;97.92
42633;BME280;28261;53.304;-6.284;2022-11-20T03:48:39;100034.59;;;6.04;97.96
42633;BME280;28261;53.304;-6.284;2022-11-20T03:50:44;100031.09;;;6.04;97.66
42633;BME280;28261;53.304;-6.284;2022-11-20T03:52:49;100030.47;;;6.00;97.67
42633;BME280;28261;53.304;-6.284;2022-11-20T03:54:52;100046.25;;;6.00;97.71
42633;BME280;28261;53.304;-6.284;2022-11-20T03:56:56;100045.38;;;6.00;97.82
42633;BME280;28261;53.304;-6.284;2022-11-20T03:58:59;100042.75;;;6.00;97.93
42633;BME280;28261;53.304;-6.284;2022-11-20T04:01:07;100053.28;;;6.00;97.90
42633;BME280;28261;53.304;-6.284;2022-11-20T04:11:08;100034.19;;;5.96;97.35
42633;BME280;28261;53.304;-6.284;2022-11-20T04:14:15;100034.19;;;5.96;97.22
42633;BME280;28261;53.304;-6.284;2022-11-20T04:16:19;100033.31;;;5.96;97.14
42633;BME280;28261;53.304;-6.284;2022-11-20T04:18:23;100037.72;;;5.95;97.19
42633;BME280;28261;53.304;-6.284;2022-11-20T04:20:26;100021.19;;;5.93;97.54
42633;BME280;28261;53.304;-6.284;2022-11-20T04:22:30;100023.81;;;5.93;97.27
42633;BME280;28261;53.304;-6.284;2022-11-20T04:24:39;100029.06;;;5.93;97.42
42633;BME280;28261;53.304;-6.284;2022-11-20T04:26:44;100037.84;;;5.93;97.54
42633;BME280;28261;53.304;-6.284;2022-11-20T04:28:48;100035.19;;;5.93;97.75
42633;BME280;28261;53.304;-6.284;2022-11-20T04:34:49;100049.28;;;5.92;98.68
42633;BME280;28261;53.304;-6.284;2022-11-20T04:36:52;100052.75;;;5.93;98.93
42633;BME280;28261;53.304;-6.284;2022-11-20T04:38:57;100058.97;;;5.92;99.08
42633;BME280;28261;53.304;-6.284;2022-11-20T04:41:04;100049.28;;;5.92;99.65
42633;BME280;28261;53.304;-6.284;2022-11-20T04:44:15;100062.63;;;5.89;99.92
42633;BME280;28261;53.304;-6.284;2022-11-20T04:47:31;100060.81;;;5.90;100.00
42633;BME280;28261;53.304;-6.284;2022-11-20T04:49:34;100067.97;;;5.88;100.00
42633;BME280;28261;53.304;-6.284;2022-11-20T04:51:37;100077.63;;;5.87;100.00
42633;BME280;28261;53.304;-6.284;2022-11-20T04:53:41;100083.91;;;5.85;100.00
42633;BME280;28261;53.304;-6.284;2022-11-20T04:55:46;100086.53;;;5.85;100.00
42633;BME280;28261;53.304;-6.284;2022-11-20T05:03:38;100081.47;;;5.82;100.00
42633;BME280;28261;53.304;-6.284;2022-11-20T05:06:04;100071.88;;;5.81;100.00
42633;BME280;28261;53.304;-6.284;2022-11-20T05:08:11;100084.94;;;5.82;100.00
42633;BME280;28261;53.304;-6.284;2022-11-20T05:11:00;100090.97;;;5.84;100.00
42633;BME280;28261;53.304;-6.284;2022-11-20T05:13:07;100090.13;;;5.84;100.00
42633;BME280;28261;53.304;-6.284;2022-11-20T05:15:20;100089.25;;;5.83;100.00
42633;BME280;28261;53.304;-6.284;2022-11-20T05:17:26;100101.59;;;5.83;100.00
42633;BME280;28261;53.304;-6.284;2022-11-20T05:19:30;100101.59;;;5.83;100.00
42633;BME280;28261;53.304;-6.284;2022-11-20T05:29:15;100114.06;;;5.79;99.91
42633;BME280;28261;53.304;-6.284;2022-11-20T05:31:21;100114.13;;;5.78;99.74
42633;BME280;28261;53.304;-6.284;2022-11-20T05:33:30;100119.50;;;5.76;99.60
42633;BME280;28261;53.304;-6.284;2022-11-20T05:37:10;100105.66;;;5.72;99.46
42633;BME280;28261;53.304;-6.284;2022-11-20T05:42:37;100091.94;;;5.67;99.29
42633;BME280;28261;53.304;-6.284;2022-11-20T05:45:52;100090.25;;;5.66;99.30
42633;BME280;28261;53.304;-6.284;2022-11-20T05:47:58;100093.81;;;5.65;99.02
42633;BME280;28261;53.304;-6.284;2022-11-20T05:50:05;100097.34;;;5.64;99.05
42633;BME280;28261;53.304;-6.284;2022-11-20T05:56:10;100103.47;;;5.65;98.71
42633;BME280;28261;53.304;-6.284;2022-11-20T05:58:35;100089.47;;;5.64;98.60
42633;BME280;28261;53.304;-6.284;2022-11-20T06:00:39;100099.06;;;5.65;98.68
42633;BME280;28261;53.304;-6.284;2022-11-20T06:02:42;100089.47;;;5.64;98.46
42633;BME280;28261;53.304;-6.284;2022-11-20T06:04:46;100095.50;;;5.66;98.57
42633;BME280;28261;53.304;-6.284;2022-11-20T06:06:52;100080.56;;;5.67;98.32
42633;BME280;28261;53.304;-6.284;2022-11-20T06:08:56;100077.09;;;5.66;98.41
42633;BME280;28261;53.304;-6.284;2022-11-20T06:15:24;100077.19;;;5.65;98.33
42633;BME280;28261;53.304;-6.284;2022-11-20T06:17:56;100062.25;;;5.65;97.97
42633;BME280;28261;53.304;-6.284;2022-11-20T06:20:01;100055.28;;;5.64;97.71
42633;BME280;28261;53.304;-6.284;2022-11-20T06:23:08;100046.56;;;5.64;98.00
42633;BME280;28261;53.304;-6.284;2022-11-20T06:28:00;100038.75;;;5.62;97.74
42633;BME280;28261;53.304;-6.284;2022-11-20T06:41:42;100045.44;;;5.68;96.44
42633;BME280;28261;53.304;-6.284;2022-11-20T06:44:58;100048.91;;;5.68;96.09
42633;BME280;28261;53.304;-6.284;2022-11-20T06:48:41;100042.81;;;5.68;95.99
42633;BME280;28261;53.304;-6.284;2022-11-20T06:52:02;100048.06;;;5.68;95.92
42633;BME280;28261;53.304;-6.284;2022-11-20T06:54:10;100048.00;;;5.69;95.80
42633;BME280;28261;53.304;-6.284;2022-11-20T07:12:34;100036.16;;;5.76;94.75
42633;BME280;28261;53.304;-6.284;2022-11-20T07:18:51;100037.13;;;5.75;94.63
42633;BME280;28261;53.304;-6.284;2022-11-20T07:24:56;100020.66;;;5.72;95.02
42633;BME280;28261;53.304;-6.284;2022-11-20T07:27:56;100030.16;;;5.74;94.55
42633;BME280;28261;53.304;-6.284;2022-11-20T07:41:48;100036.75;;;5.82;93.92
42633;BME280;28261;53.304;-6.284;2022-11-20T07:43:54;100030.66;;;5.81;94.11
42633;BME280;28261;53.304;-6.284;2022-11-20T07:53:12;100038.25;;;5.86;93.82
42633;BME280;28261;53.304;-6.284;2022-11-20T07:55:58;100021.38;;;5.90;93.38
42633;BME280;28261;53.304;-6.284;2022-11-20T08:02:09;100015.75;;;5.96;93.01
42633;BME280;28261;53.304;-6.284;2022-11-20T08:08:31;100019.75;;;6.03;92.91
42633;BME280;28261;53.304;-6.284;2022-11-20T08:11:14;100017.00;;;6.05;92.94
42633;BME280;28261;53.304;-6.284;2022-11-20T08:18:38;100008.78;;;6.11;92.74
42633;BME280;28261;53.304;-6.284;2022-11-20T08:25:15;100002.19;;;6.18;92.57
42633;BME280;28261;53.304;-6.284;2022-11-20T08:31:30;99996.44;;;6.26;92.20
42633;BME280;28261;53.304;-6.284;2022-11-20T08:34:00;100001.44;;;6.31;91.68
42633;BME280;28261;53.304;-6.284;2022-11-20T08:40:00;99993.09;;;6.38;91.39
42633;BME280;28261;53.304;-6.284;2022-11-20T08:46:18;100013.56;;;6.48;90.63
42633;BME280;28261;53.304;-6.284;2022-11-20T08:48:51;100018.66;;;6.51;90.04
42633;BME280;28261;53.304;-6.284;2022-11-20T08:55:34;100014.59;;;6.59;89.48
42633;BME280;28261;53.304;-6.284;2022-11-20T08:58:08;100015.38;;;6.62;89.44
42633;BME280;28261;53.304;-6.284;2022-11-20T09:04:53;99998.13;;;6.70;88.57
42633;BME280;28261;53.304;-6.284;2022-11-20T09:17:28;99979.13;;;6.65;87.52
42633;BME280;28261;53.304;-6.284;2022-11-20T09:19:55;99959.88;;;6.65;87.67
42633;BME280;28261;53.304;-6.284;2022-11-20T09:22:25;99958.06;;;6.65;87.68
42633;BME280;28261;53.304;-6.284;2022-11-20T09:28:53;99940.75;;;6.61;87.58
42633;BME280;28261;53.304;-6.284;2022-11-20T09:33:54;99930.34;;;6.59;87.54
42633;BME280;28261;53.304;-6.284;2022-11-20T09:36:13;99924.13;;;6.60;88.30
42633;BME280;28261;53.304;-6.284;2022-11-20T09:38:49;99915.38;;;6.60;87.77
42633;BME280;28261;53.304;-6.284;2022-11-20T09:45:44;99925.91;;;6.60;87.52
42633;BME280;28261;53.304;-6.284;2022-11-20T09:52:54;99934.66;;;6.60;87.39
42633;BME280;28261;53.304;-6.284;2022-11-20T09:55:02;99932.03;;;6.60;87.64
42633;BME280;28261;53.304;-6.284;2022-11-20T09:57:11;99927.50;;;6.63;87.63
42633;BME280;28261;53.304;-6.284;2022-11-20T09:59:33;99936.25;;;6.63;87.45
42633;BME280;28261;53.304;-6.284;2022-11-20T10:01:53;99941.44;;;6.65;87.87
42633;BME280;28261;53.304;-6.284;2022-11-20T10:04:32;99947.44;;;6.67;87.94
42633;BME280;28261;53.304;-6.284;2022-11-20T10:06:46;99937.75;;;6.67;88.11
42633;BME280;28261;53.304;-6.284;2022-11-20T10:09:39;99944.63;;;6.70;88.00
42633;BME280;28261;53.304;-6.284;2022-11-20T10:16:08;99952.22;;;6.74;87.91
42633;BME280;28261;53.304;-6.284;2022-11-20T10:19:13;99956.34;;;6.78;87.93
42633;BME280;28261;53.304;-6.284;2022-11-20T10:21:30;99943.19;;;6.78;87.80
42633;BME280;28261;53.304;-6.284;2022-11-20T10:27:44;99965.19;;;6.77;88.05
42633;BME280;28261;53.304;-6.284;2022-11-20T10:30:00;99946.00;;;6.75;87.78
42633;BME280;28261;53.304;-6.284;2022-11-20T10:32:15;99962.66;;;6.76;87.13
42633;BME280;28261;53.304;-6.284;2022-11-20T10:35:01;99968.75;;;6.76;86.72
42633;BME280;28261;53.304;-6.284;2022-11-20T10:38:14;99980.06;;;6.78;86.77
42633;BME280;28261;53.304;-6.284;2022-11-20T10:40:49;99971.22;;;6.80;86.83
42633;BME280;28261;53.304;-6.284;2022-11-20T10:47:20;99983.53;;;6.79;87.30
42633;BME280;28261;53.304;-6.284;2022-11-20T10:50:12;99998.28;;;6.82;87.94
42633;BME280;28261;53.304;-6.284;2022-11-20T10:52:28;99997.25;;;6.84;88.10
42633;BME280;28261;53.304;-6.284;2022-11-20T10:54:40;99995.47;;;6.85;88.33
42633;BME280;28261;53.304;-6.284;2022-11-20T10:56:50;100009.41;;;6.87;88.84
42633;BME280;28261;53.304;-6.284;2022-11-20T10:59:03;100004.03;;;6.88;88.96
42633;BME280;28261;53.304;-6.284;2022-11-20T11:01:14;100011.09;;;6.88;89.28
42633;BME280;28261;53.304;-6.284;2022-11-20T11:03:24;100006.88;;;6.85;89.15
42633;BME280;28261;53.304;-6.284;2022-11-20T11:05:36;100016.38;;;6.88;88.92
42633;BME280;28261;53.304;-6.284;2022-11-20T11:07:42;100022.19;;;6.93;89.12
42633;BME280;28261;53.304;-6.284;2022-11-20T11:09:49;100037.50;;;7.01;88.51
42633;BME280;28261;53.304;-6.284;2022-11-20T11:11:55;100019.53;;;7.07;87.61
42633;BME280;28261;53.304;-6.284;2022-11-20T11:14:10;100041.25;;;7.11;86.88
42633;BME280;28261;53.304;-6.284;2022-11-20T11:16:22;100028.91;;;7.11;85.75
42633;BME280;28261;53.304;-6.284;2022-11-20T11:18:29;100037.03;;;7.08;85.47
42633;BME280;28261;53.304;-6.284;2022-11-20T11:20:34;100043.03;;;7.10;85.60
42633;BME280;28261;53.304;-6.284;2022-11-20T11:22:44;100034.00;;;7.15;84.70
42633;BME280;28261;53.304;-6.284;2022-11-20T11:24:51;100040.97;;;7.16;84.06
42633;BME280;28261;53.304;-6.284;2022-11-20T11:26:59;100039.09;;;7.18;83.66
42633;BME280;28261;53.304;-6.284;2022-11-20T11:29:17;100032.94;;;7.17;83.14
42633;BME280;28261;53.304;-6.284;2022-11-20T11:31:25;100029.47;;;7.17;83.41
42633;BME280;28261;53.304;-6.284;2022-11-20T11:33:32;100031.06;;;7.19;83.06
42633;BME280;28261;53.304;-6.284;2022-11-20T11:35:44;100022.41;;;7.17;82.93
42633;BME280;28261;53.304;-6.284;2022-11-20T11:38:01;100023.44;;;7.15;82.40
42633;BME280;28261;53.304;-6.284;2022-11-20T11:40:08;100017.34;;;7.14;82.50
42633;BME280;28261;53.304;-6.284;2022-11-20T11:42:25;100016.50;;;7.14;82.86
42633;BME280;28261;53.304;-6.284;2022-11-20T11:44:33;100013.94;;;7.12;83.23
42633;BME280;28261;53.304;-6.284;2022-11-20T11:46:55;99996.47;;;7.11;83.37
42633;BME280;28261;53.304;-6.284;2022-11-20T11:49:10;100001.72;;;7.11;83.63
42633;BME280;28261;53.304;-6.284;2022-11-20T11:51:20;100014.91;;;7.11;83.91
42633;BME280;28261;53.304;-6.284;2022-11-20T11:53:26;100027.03;;;7.14;84.27
42633;BME280;28261;53.304;-6.284;2022-11-20T11:55:35;100028.53;;;7.18;84.70
42633;BME280;28261;53.304;-6.284;2022-11-20T11:57:44;100022.31;;;7.19;84.97
42633;BME280;28261;53.304;-6.284;2022-11-20T12:00:00;100034.75;;;7.17;85.81
42633;BME280;28261;53.304;-6.284;2022-11-20T12:02:15;100039.09;;;7.18;86.76
42633;BME280;28261;53.304;-6.284;2022-11-20T12:04:40;100035.78;;;7.14;87.08
42633;BME280;28261;53.304;-6.284;2022-11-20T12:06:48;100037.59;;;7.14;86.86
42633;BME280;28261;53.304;-6.284;2022-11-20T12:08:57;100035.88;;;7.13;86.69
42633;BME280;28261;53.304;-6.284;2022-11-20T12:11:04;100035.13;;;7.10;86.73
42633;BME280;28261;53.304;-6.284;2022-11-20T12:13:23;100037.75;;;7.10;86.63
42633;BME280;28261;53.304;-6.284;2022-11-20T12:15:30;100033.34;;;7.11;86.75
42633;BME280;28261;53.304;-6.284;2022-11-20T12:17:35;100026.19;;;7.13;86.31
42633;BME280;28261;53.304;-6.284;2022-11-20T12:19:40;100034.84;;;7.15;85.94
42633;BME280;28261;53.304;-6.284;2022-11-20T12:21:52;100030.41;;;7.16;84.77
42633;BME280;28261;53.304;-6.284;2022-11-20T12:24:13;100031.25;;;7.16;84.35
42633;BME280;28261;53.304;-6.284;2022-11-20T12:26:34;100033.81;;;7.18;83.72
42633;BME280;28261;53.304;-6.284;2022-11-20T12:28:48;100027.56;;;7.19;83.97
42633;BME280;28261;53.304;-6.284;2022-11-20T12:31:23;100033.59;;;7.21;83.94
42633;BME280;28261;53.304;-6.284;2022-11-20T12:33:50;100043.13;;;7.23;83.44
42633;BME280;28261;53.304;-6.284;2022-11-20T12:36:06;100041.22;;;7.25;83.20
42633;BME280;28261;53.304;-6.284;2022-11-20T12:38:45;100047.34;;;7.26;82.28
42633;BME280;28261;53.304;-6.284;2022-11-20T12:41:00;100041.09;;;7.27;83.06
42633;BME280;28261;53.304;-6.284;2022-11-20T12:43:14;100038.47;;;7.27;82.69
42633;BME280;28261;53.304;-6.284;2022-11-20T12:45:54;100044.50;;;7.29;83.36
42633;BME280;28261;53.304;-6.284;2022-11-20T12:48:24;100047.88;;;7.31;83.68
42633;BME280;28261;53.304;-6.284;2022-11-20T12:50:43;100045.16;;;7.33;83.19
42633;BME280;28261;53.304;-6.284;2022-11-20T12:53:23;100052.00;;;7.35;82.73
42633;BME280;28261;53.304;-6.284;2022-11-20T12:55:42;100051.06;;;7.36;82.38
42633;BME280;28261;53.304;-6.284;2022-11-20T12:57:54;100034.31;;;7.37;81.97
42633;BME280;28261;53.304;-6.284;2022-11-20T13:00:08;100051.84;;;7.38;81.45
42633;BME280;28261;53.304;-6.284;2022-11-20T13:02:23;100048.22;;;7.39;81.77
42633;BME280;28261;53.304;-6.284;2022-11-20T13:04:51;100042.78;;;7.42;81.24
42633;BME280;28261;53.304;-6.284;2022-11-20T13:07:01;100053.13;;;7.45;81.19
42633;BME280;28261;53.304;-6.284;2022-11-20T13:09:10;100052.19;;;7.47;82.07
42633;BME280;28261;53.304;-6.284;2022-11-20T13:11:18;100054.72;;;7.48;82.60
42633;BME280;28261;53.304;-6.284;2022-11-20T13:13:33;100049.22;;;7.51;83.34
42633;BME280;28261;53.304;-6.284;2022-11-20T13:15:47;100041.31;;;7.51;83.52
42633;BME280;28261;53.304;-6.284;2022-11-20T13:17:56;100049.13;;;7.53;83.52
42633;BME280;28261;53.304;-6.284;2022-11-20T13:20:02;100057.03;;;7.53;83.60
42633;BME280;28261;53.304;-6.284;2022-11-20T13:22:08;100064.84;;;7.54;83.22
42633;BME280;28261;53.304;-6.284;2022-11-20T13:24:27;100068.34;;;7.55;83.54
42633;BME280;28261;53.304;-6.284;2022-11-20T13:26:32;100071.72;;;7.57;83.68
42633;BME280;28261;53.304;-6.284;2022-11-20T13:28:36;100075.13;;;7.59;82.64
42633;BME280;28261;53.304;-6.284;2022-11-20T13:30:49;100070.47;;;7.62;82.85
42633;BME280;28261;53.304;-6.284;2022-11-20T13:32:54;100058.03;;;7.65;82.01
42633;BME280;28261;53.304;-6.284;2022-11-20T13:35:00;100057.94;;;7.66;81.07
42633;BME280;28261;53.304;-6.284;2022-11-20T13:37:04;100058.69;;;7.68;81.20
42633;BME280;28261;53.304;-6.284;2022-11-20T13:39:08;100067.44;;;7.69;80.31
42633;BME280;28261;53.304;-6.284;2022-11-20T13:41:23;100064.69;;;7.70;78.50
42633;BME280;28261;53.304;-6.284;2022-11-20T13:43:39;100068.09;;;7.72;78.23
42633;BME280;28261;53.304;-6.284;2022-11-20T13:45:54;100073.28;;;7.74;77.62
42633;BME280;28261;53.304;-6.284;2022-11-20T13:48:02;100082.84;;;7.75;76.61
42633;BME280;28261;53.304;-6.284;2022-11-20T13:50:08;100071.38;;;7.76;75.34
42633;BME280;28261;53.304;-6.284;2022-11-20T13:52:35;100074.00;;;7.76;75.53
42633;BME280;28261;53.304;-6.284;2022-11-20T13:54:59;100080.97;;;7.77;73.90
42633;BME280;28261;53.304;-6.284;2022-11-20T13:57:19;100077.28;;;7.79;72.69
42633;BME280;28261;53.304;-6.284;2022-11-20T13:59:40;100078.13;;;7.80;72.26
42633;BME280;28261;53.304;-6.284;2022-11-20T14:01:48;100087.75;;;7.81;71.73
42633;BME280;28261;53.304;-6.284;2022-11-20T14:03:53;100092.09;;;7.82;70.98
42633;BME280;28261;53.304;-6.284;2022-11-20T14:06:16;100075.38;;;7.82;69.66
42633;BME280;28261;53.304;-6.284;2022-11-20T14:08:27;100088.47;;;7.83;69.38
42633;BME280;28261;53.304;-6.284;2022-11-20T14:10:34;100085.84;;;7.83;69.94
42633;BME280;28261;53.304;-6.284;2022-11-20T14:12:42;100089.34;;;7.84;69.75
42633;BME280;28261;53.304;-6.284;2022-11-20T14:14:50;100089.34;;;7.84;69.90
42633;BME280;28261;53.304;-6.284;2022-11-20T14:17:08;100110.44;;;7.84;69.95
42633;BME280;28261;53.304;-6.284;2022-11-20T14:19:27;100108.97;;;7.79;69.59
42633;BME280;28261;53.304;-6.284;2022-11-20T14:21:33;100102.09;;;7.77;69.40
42633;BME280;28261;53.304;-6.284;2022-11-20T14:23:36;100109.34;;;7.73;69.98
42633;BME280;28261;53.304;-6.284;2022-11-20T14:25:42;100103.44;;;7.70;70.47
42633;BME280;28261;53.304;-6.284;2022-11-20T14:27:51;100108.06;;;7.66;70.96
42633;BME280;28261;53.304;-6.284;2022-11-20T14:29:55;100109.00;;;7.65;70.92
42633;BME280;28261;53.304;-6.284;2022-11-20T14:31:59;100115.31;;;7.62;71.39
42633;BME280;28261;53.304;-6.284;2022-11-20T14:34:04;100118.16;;;7.59;71.99
42633;BME280;28261;53.304;-6.284;2022-11-20T14:36:16;100101.50;;;7.59;72.41
42633;BME280;28261;53.304;-6.284;2022-11-20T14:38:23;100111.28;;;7.57;72.70
42633;BME280;28261;53.304;-6.284;2022-11-20T14:40:29;100102.66;;;7.55;73.43
42633;BME280;28261;53.304;-6.284;2022-11-20T14:42:33;100108.03;;;7.53;73.93
42633;BME280;28261;53.304;-6.284;2022-11-20T14:44:41;100111.59;;;7.52;74.37
42633;BME280;28261;53.304;-6.284;2022-11-20T14:46:45;100103.78;;;7.51;74.31
42633;BME280;28261;53.304;-6.284;2022-11-20T14:48:51;100105.66;;;7.49;75.57
42633;BME280;28261;53.304;-6.284;2022-11-20T14:50:57;100103.97;;;7.48;75.57
42633;BME280;28261;53.304;-6.284;2022-11-20T14:53:01;100105.75;;;7.47;75.23
42633;BME280;28261;53.304;-6.284;2022-11-20T14:55:05;100096.25;;;7.44;75.87
42633;BME280;28261;53.304;-6.284;2022-11-20T14:57:20;100095.53;;;7.42;76.48
42633;BME280;28261;53.304;-6.284;2022-11-20T14:59:25;100104.25;;;7.43;76.45
42633;BME280;28261;53.304;-6.284;2022-11-20T15:01:32;100112.28;;;7.41;77.41
42633;BME280;28261;53.304;-6.284;2022-11-20T15:03:38;100102.66;;;7.40;77.89
42633;BME280;28261;53.304;-6.284;2022-11-20T15:05:46;100108.97;;;7.38;78.28
42633;BME280;28261;53.304;-6.284;2022-11-20T15:07:51;100117.94;;;7.35;78.87
42633;BME280;28261;53.304;-6.284;2022-11-20T15:10:03;100112.97;;;7.31;79.58
42633;BME280;28261;53.304;-6.284;2022-11-20T15:12:17;100128.88;;;7.29;80.45
42633;BME280;28261;53.304;-6.284;2022-11-20T15:14:21;100122.00;;;7.26;80.27
42633;BME280;28261;53.304;-6.284;2022-11-20T15:16:26;100129.16;;;7.24;80.38
42633;BME280;28261;53.304;-6.284;2022-11-20T15:18:36;100131.88;;;7.23;80.82
42633;BME280;28261;53.304;-6.284;2022-11-20T15:20:40;100138.19;;;7.20;81.28
42633;BME280;28261;53.304;-6.284;2022-11-20T15:22:44;100127.00;;;7.17;81.35
42633;BME280;28261;53.304;-6.284;2022-11-20T15:24:48;100126.16;;;7.16;81.81
42633;BME280;28261;53.304;-6.284;2022-11-20T15:26:51;100120.25;;;7.13;81.95
42633;BME280;28261;53.304;-6.284;2022-11-20T15:28:55;100116.84;;;7.10;81.93
42633;BME280;28261;53.304;-6.284;2022-11-20T15:30:59;100120.50;;;7.08;82.58
42633;BME280;28261;53.304;-6.284;2022-11-20T15:33:07;100127.78;;;7.04;82.64
42633;BME280;28261;53.304;-6.284;2022-11-20T15:35:13;100130.59;;;7.01;82.49
42633;BME280;28261;53.304;-6.284;2022-11-20T15:37:17;100126.47;;;6.97;82.50
42633;BME280;28261;53.304;-6.284;2022-11-20T15:39:20;100128.34;;;6.95;83.01
42633;BME280;28261;53.304;-6.284;2022-11-20T15:41:24;100135.56;;;6.91;82.48
42633;BME280;28261;53.304;-6.284;2022-11-20T15:43:28;100144.50;;;6.89;82.63
42633;BME280;28261;53.304;-6.284;2022-11-20T15:45:36;100156.94;;;6.87;83.03
42633;BME280;28261;53.304;-6.284;2022-11-20T15:47:42;100147.44;;;6.84;82.66
42633;BME280;28261;53.304;-6.284;2022-11-20T15:49:45;100145.00;;;6.81;83.16
42633;BME280;28261;53.304;-6.284;2022-11-20T15:51:51;100145.09;;;6.80;83.02
42633;BME280;28261;53.304;-6.284;2022-11-20T15:53:56;100149.59;;;6.77;83.20
42633;BME280;28261;53.304;-6.284;2022-11-20T15:56:00;100152.41;;;6.74;83.31
42633;BME280;28261;53.304;-6.284;2022-11-20T15:58:04;100154.28;;;6.72;82.89
42633;BME280;28261;53.304;-6.284;2022-11-20T16:00:09;100152.63;;;6.71;82.92
42633;BME280;28261;53.304;-6.284;2022-11-20T16:02:14;100159.75;;;6.69;82.83
42633;BME280;28261;53.304;-6.284;2022-11-20T16:04:20;100154.66;;;6.66;82.84
42633;BME280;28261;53.304;-6.284;2022-11-20T16:06:24;100147.88;;;6.62;82.91
42633;BME280;28261;53.304;-6.284;2022-11-20T16:08:29;100157.66;;;6.60;83.17
42633;BME280;28261;53.304;-6.284;2022-11-20T16:10:33;100153.34;;;6.59;83.14
42633;BME280;28261;53.304;-6.284;2022-11-20T16:12:37;100162.28;;;6.56;83.33
42633;BME280;28261;53.304;-6.284;2022-11-20T16:14:58;100172.91;;;6.55;83.46
42633;BME280;28261;53.304;-6.284;2022-11-20T16:17:18;100176.56;;;6.52;83.58
42633;BME280;28261;53.304;-6.284;2022-11-20T16:19:42;100178.50;;;6.49;83.63
42633;BME280;28261;53.304;-6.284;2022-11-20T16:21:46;100170.72;;;6.47;84.17